createdAt,value
2022-12-09T11:46:12.536Z,77739.78
2022-12-09T11:53:34.471Z,77741.81
2022-12-09T12:00:51.856Z,77735.69
2022-12-09T12:07:56.879Z,77723.44
2022-12-09T12:15:06.621Z,77707.06
2022-12-09T12:22:40.740Z,77711.16
2022-12-09T12:29:57.049Z,77711.16
2022-12-09T12:37:05.814Z,77707.06
2022-12-09T12:44:29.421Z,77702.97
2022-12-09T12:51:42.899Z,77688.66
2022-12-09T12:59:09.420Z,77684.59
2022-12-09T13:06:15.213Z,77694.81
2022-12-09T13:13:29.592Z,77696.84
2022-12-09T13:20:53.080Z,77705.03
2022-12-09T13:28:08.621Z,77719.34
2022-12-09T13:35:37.647Z,77717.28
2022-12-09T13:42:58.742Z,77719.34
2022-12-09T13:50:04.436Z,77709.13
2022-12-09T13:57:07.298Z,77717.28
2022-12-09T14:04:28.820Z,77727.50
2022-12-09T14:11:54.879Z,77735.69
2022-12-09T14:18:57.372Z,77752.03
2022-12-09T14:26:01.214Z,77750.00
2022-12-09T14:33:03.339Z,77752.03
2022-12-09T14:40:18.032Z,77747.97
2022-12-09T14:47:31.600Z,77743.88
2022-12-09T14:54:36.286Z,77735.69
2022-12-09T15:01:58.855Z,77739.78
2022-12-09T15:09:00.962Z,77737.72
2022-12-09T15:16:03.472Z,77741.81
2022-12-09T15:23:24.560Z,77797.03
2022-12-09T15:30:34.421Z,77799.06
2022-12-09T15:37:37.955Z,77794.97
2022-12-09T15:44:44.244Z,77770.44
2022-12-09T15:51:47.635Z,77747.97
2022-12-09T15:58:53.197Z,77756.13
2022-12-09T16:06:01.789Z,77758.19
2022-12-09T16:13:18.626Z,77750.00
2022-12-09T16:20:33.147Z,77764.31
2022-12-09T16:27:38.913Z,77754.09
2022-12-09T16:34:41.724Z,77760.22
2022-12-09T16:41:54.895Z,77756.13
2022-12-09T16:49:04.659Z,77739.78
2022-12-09T16:56:17.068Z,77725.47
2022-12-09T17:03:22.511Z,77729.56
2022-12-09T17:10:25.544Z,77731.59
2022-12-09T17:17:28.394Z,77735.69
2022-12-09T17:24:31.425Z,77743.88
2022-12-09T17:31:37.226Z,77754.09
2022-12-09T17:38:43.073Z,77747.97
2022-12-09T17:45:48.048Z,77743.88
2022-12-09T17:52:50.634Z,77756.13
2022-12-09T17:59:58.733Z,77760.22
2022-12-09T18:07:00.914Z,77752.03
2022-12-09T18:14:03.459Z,77752.03
2022-12-09T18:21:10.639Z,77754.09
2022-12-09T18:28:18.607Z,77766.34
2022-12-09T18:35:21.427Z,77762.25
2022-12-09T18:42:23.816Z,77764.31
2022-12-09T18:49:29.267Z,77756.13
2022-12-09T18:56:33.231Z,77747.97
2022-12-09T19:03:36.218Z,77743.88
2022-12-09T19:10:39.228Z,77747.97
2022-12-09T19:17:50.038Z,77764.31
2022-12-09T19:24:52.787Z,77756.13
2022-12-09T19:31:58.099Z,77752.03
2022-12-09T19:39:15.026Z,77764.31
2022-12-09T19:46:20.682Z,77776.56
2022-12-09T19:53:25.204Z,77774.53
2022-12-09T20:00:30.903Z,77780.66
2022-12-09T20:07:35.204Z,77776.56
2022-12-09T20:14:41.090Z,77788.84
2022-12-09T20:21:47.304Z,77772.50
2022-12-09T20:28:51.874Z,77768.41
2022-12-09T20:35:54.249Z,77764.31
2022-12-09T20:42:56.878Z,77752.03
2022-12-09T20:49:59.748Z,77760.22
2022-12-09T20:57:02.256Z,77758.19
2022-12-09T21:04:07.253Z,77752.03
2022-12-09T21:11:12.903Z,77756.13
2022-12-09T21:18:15.380Z,77752.03
2022-12-09T21:25:18.303Z,77750.00
2022-12-09T21:32:21.211Z,77743.88
2022-12-09T21:39:23.789Z,77739.78
2022-12-09T21:46:28.790Z,77747.97
2022-12-09T21:53:32.425Z,77743.88
2022-12-09T22:00:34.677Z,77739.78
2022-12-09T22:07:37.346Z,77727.50
2022-12-09T22:14:39.881Z,77733.66
2022-12-09T22:21:42.463Z,77745.91
2022-12-09T22:28:44.524Z,77743.88
2022-12-09T22:35:46.592Z,77737.72
2022-12-09T22:42:48.697Z,77743.88
2022-12-09T22:49:50.625Z,77735.69
2022-12-09T22:56:52.756Z,77747.97
2022-12-09T23:03:55.887Z,77743.88
2022-12-09T23:11:05.743Z,77739.78
2022-12-09T23:18:07.943Z,77735.69
2022-12-09T23:25:10.161Z,77743.88
2022-12-09T23:32:12.278Z,77750.00
2022-12-09T23:39:17.312Z,77752.03
2022-12-09T23:46:22.759Z,77756.13
2022-12-09T23:53:25.145Z,77752.03
